Time;durP1;ratioP1;P1;durP2;ratioP2;P2;SDS_P1;SDS_P2;PMS_P1;PMS_P2;Temp;Humidity;BMP_temperature;BMP_pressure;BME280_temperature;BME280_humidity;BME280_pressure;Samples;Min_cycle;Max_cycle;Signal;HPM_P1;HPM_P2
2021/09/22 00:00:29;;;;;;;10.13;5.93;;;;;;;;;;6226429;28;20465;-72
2021/09/22 00:03:30;;;;;;;9.90;6.80;;;;;;;;;;6228526;28;20613;-72
2021/09/22 00:06:32;;;;;;;9.18;6.60;;;;;;;;;;6228600;28;20141;-72
2021/09/22 00:09:33;;;;;;;11.93;7.20;;;;;;;;;;6235216;28;20044;-72
2021/09/22 00:12:35;;;;;;;8.90;6.22;;;;;;;;;;6230578;28;20041;-72
2021/09/22 00:15:38;;;;;;;9.30;6.03;;;;;;;;;;6227803;28;20191;-72
2021/09/22 00:18:40;;;;;;;7.70;5.85;;;;;;;;;;6235861;28;20127;-72
2021/09/22 00:21:41;;;;;;;8.13;5.72;;;;;;;;;;6232900;28;20049;-72
2021/09/22 00:24:43;;;;;;;10.43;6.07;;;;;;;;;;6235662;28;20045;-71
2021/09/22 00:27:44;;;;;;;8.30;6.05;;;;;;;;;;6230638;28;20045;-72
2021/09/22 00:30:48;;;;;;;10.05;6.40;;;;;;;;;;6230793;28;20051;-72
2021/09/22 00:33:50;;;;;;;10.30;6.05;;;;;;;;;;6232785;28;20408;-72
2021/09/22 00:36:51;;;;;;;8.32;5.97;;;;;;;;;;6233727;28;20627;-72
2021/09/22 00:39:53;;;;;;;8.48;6.70;;;;;;;;;;6236834;28;20046;-72
2021/09/22 00:42:54;;;;;;;13.07;7.10;;;;;;;;;;6233391;28;20129;-72
2021/09/22 00:46:03;;;;;;;10.55;6.72;;;;;;;;;;6229084;28;20057;-72
2021/09/22 00:49:05;;;;;;;9.27;6.38;;;;;;;;;;6236303;28;20469;-72
2021/09/22 00:52:06;;;;;;;10.20;6.57;;;;;;;;;;6232480;28;20057;-72
2021/09/22 00:55:09;;;;;;;10.32;6.60;;;;;;;;;;6235527;28;20107;-72
2021/09/22 00:58:11;;;;;;;12.03;6.13;;;;;;;;;;6236674;28;20053;-72
2021/09/22 01:01:14;;;;;;;8.52;6.38;;;;;;;;;;6232208;28;20037;-72
2021/09/22 01:04:16;;;;;;;9.37;6.80;;;;;;;;;;6223267;28;20441;-72
2021/09/22 01:07:17;;;;;;;15.38;7.55;;;;;;;;;;6202976;28;20481;-72
2021/09/22 01:10:19;;;;;;;10.93;6.10;;;;;;;;;;6230843;28;20084;-72
2021/09/22 01:13:21;;;;;;;10.68;7.03;;;;;;;;;;6235156;28;20057;-71
2021/09/22 01:16:24;;;;;;;13.15;6.60;;;;;;;;;;6228528;28;20038;-72
2021/09/22 01:19:27;;;;;;;12.87;7.23;;;;;;;;;;6229412;28;20456;-72
2021/09/22 01:22:30;;;;;;;10.40;7.60;;;;;;;;;;6226921;28;20050;-72
2021/09/22 01:25:32;;;;;;;9.07;6.95;;;;;;;;;;6225892;28;20729;-72
2021/09/22 01:28:33;;;;;;;9.90;6.60;;;;;;;;;;6231951;28;20103;-72
2021/09/22 01:31:35;;;;;;;10.52;7.30;;;;;;;;;;6222251;28;20067;-72
2021/09/22 01:34:37;;;;;;;10.70;7.25;;;;;;;;;;6232019;28;20142;-72
2021/09/22 01:37:40;;;;;;;10.63;6.93;;;;;;;;;;6224913;28;20075;-72
2021/09/22 01:40:52;;;;;;;8.90;7.03;;;;;;;;;;6225569;28;20045;-71
2021/09/22 01:43:54;;;;;;;11.68;7.40;;;;;;;;;;6221513;28;20099;-72
2021/09/22 01:46:55;;;;;;;10.40;7.13;;;;;;;;;;6222328;28;20460;-72
2021/09/22 01:50:00;;;;;;;9.13;6.95;;;;;;;;;;6212925;28;20730;-72
2021/09/22 01:53:04;;;;;;;12.15;7.25;;;;;;;;;;6227949;28;20541;-72
2021/09/22 01:56:06;;;;;;;10.27;7.35;;;;;;;;;;6205184;28;20049;-72
2021/09/22 01:59:08;;;;;;;9.23;6.85;;;;;;;;;;6206896;28;20092;-72
2021/09/22 02:02:09;;;;;;;8.48;6.80;;;;;;;;;;6197780;28;20128;-72
2021/09/22 02:05:11;;;;;;;9.43;6.57;;;;;;;;;;6187312;28;20460;-72
2021/09/22 02:08:14;;;;;;;8.60;7.15;;;;;;;;;;6228968;28;20056;-72
2021/09/22 02:11:16;;;;;;;9.77;7.20;;;;;;;;;;6224351;28;20770;-72
2021/09/22 02:14:18;;;;;;;10.15;6.70;;;;;;;;;;6231662;28;20552;-72
2021/09/22 02:17:20;;;;;;;9.13;7.20;;;;;;;;;;6221835;28;20049;-72
2021/09/22 02:20:21;;;;;;;9.65;6.68;;;;;;;;;;6228528;28;20327;-72
2021/09/22 02:23:24;;;;;;;9.52;7.22;;;;;;;;;;6234362;28;20063;-72
2021/09/22 02:26:26;;;;;;;8.70;7.03;;;;;;;;;;6231301;28;20481;-72
2021/09/22 02:29:28;;;;;;;12.13;7.18;;;;;;;;;;6236868;28;20056;-72
2021/09/22 02:32:29;;;;;;;8.88;6.80;;;;;;;;;;6223690;28;20049;-72
2021/09/22 02:35:31;;;;;;;10.02;7.90;;;;;;;;;;6206714;28;20049;-72
2021/09/22 02:38:34;;;;;;;12.07;7.53;;;;;;;;;;6231288;28;20471;-71
2021/09/22 02:41:36;;;;;;;10.87;7.63;;;;;;;;;;6226402;28;20149;-72
2021/09/22 02:44:38;;;;;;;10.93;7.85;;;;;;;;;;6220201;28;20144;-71
2021/09/22 02:47:39;;;;;;;10.98;7.85;;;;;;;;;;6181016;28;20498;-71
2021/09/22 02:50:41;;;;;;;10.77;8.55;;;;;;;;;;6209472;28;20047;-71
2021/09/22 02:53:44;;;;;;;12.43;8.70;;;;;;;;;;6227817;28;20160;-71
2021/09/22 02:56:45;;;;;;;9.90;7.70;;;;;;;;;;6228376;28;20508;-71
2021/09/22 02:59:47;;;;;;;15.38;8.80;;;;;;;;;;6232275;28;20046;-71
2021/09/22 03:02:48;;;;;;;13.10;8.40;;;;;;;;;;6220441;28;20160;-71
2021/09/22 03:05:50;;;;;;;10.93;8.45;;;;;;;;;;6221727;28;20509;-72
2021/09/22 03:08:53;;;;;;;12.98;8.75;;;;;;;;;;6228410;28;20056;-72
2021/09/22 03:11:55;;;;;;;12.05;8.75;;;;;;;;;;6220702;28;20452;-72
2021/09/22 03:14:57;;;;;;;11.68;8.27;;;;;;;;;;6206341;28;20505;-72
2021/09/22 03:17:58;;;;;;;12.52;8.50;;;;;;;;;;6197644;28;20050;-72
2021/09/22 03:21:00;;;;;;;11.80;8.82;;;;;;;;;;6216439;28;20046;-73
2021/09/22 03:24:05;;;;;;;13.02;8.60;;;;;;;;;;6204703;28;20061;-72
2021/09/22 03:27:07;;;;;;;11.70;9.13;;;;;;;;;;6218760;28;20513;-72
2021/09/22 03:30:12;;;;;;;12.90;8.93;;;;;;;;;;6233055;28;20038;-72
2021/09/22 03:33:14;;;;;;;12.80;8.98;;;;;;;;;;6218009;28;20048;-72
2021/09/22 03:36:16;;;;;;;16.45;9.45;;;;;;;;;;6226394;28;20064;-72
2021/09/22 03:39:19;;;;;;;13.02;8.80;;;;;;;;;;6220317;28;20042;-73
2021/09/22 03:42:20;;;;;;;11.93;8.40;;;;;;;;;;6221366;28;20054;-72
2021/09/22 03:45:22;;;;;;;11.73;8.38;;;;;;;;;;6225392;28;21136;-73
2021/09/22 03:48:24;;;;;;;12.38;8.50;;;;;;;;;;6229097;28;20699;-73
2021/09/22 03:51:26;;;;;;;13.82;9.00;;;;;;;;;;6238340;28;20049;-73
2021/09/22 03:54:29;;;;;;;11.07;8.80;;;;;;;;;;6216147;28;20119;-73
2021/09/22 03:57:30;;;;;;;12.27;8.50;;;;;;;;;;6212216;28;20616;-71
2021/09/22 04:00:32;;;;;;;13.07;8.63;;;;;;;;;;6210476;28;20133;-71
2021/09/22 04:03:34;;;;;;;11.15;8.32;;;;;;;;;;6212145;28;20050;-71
2021/09/22 04:06:35;;;;;;;12.23;8.40;;;;;;;;;;6232866;28;20167;-71
2021/09/22 04:09:38;;;;;;;11.43;8.63;;;;;;;;;;6239479;28;20187;-71
2021/09/22 04:12:40;;;;;;;10.97;8.13;;;;;;;;;;6235798;28;20098;-72
2021/09/22 04:15:41;;;;;;;11.15;8.70;;;;;;;;;;6232675;28;20042;-72
2021/09/22 04:18:44;;;;;;;11.23;8.50;;;;;;;;;;6216429;28;20058;-72
2021/09/22 04:21:46;;;;;;;11.85;8.57;;;;;;;;;;6212515;28;20042;-72
2021/09/22 04:24:49;;;;;;;13.40;8.80;;;;;;;;;;6240251;28;20386;-72
2021/09/22 04:27:50;;;;;;;14.95;9.48;;;;;;;;;;6233745;28;20125;-73
2021/09/22 04:30:52;;;;;;;14.88;8.38;;;;;;;;;;6231208;28;20507;-72
2021/09/22 04:33:54;;;;;;;13.20;9.18;;;;;;;;;;6234593;28;20041;-72
2021/09/22 04:36:55;;;;;;;13.55;9.23;;;;;;;;;;6218393;28;20046;-72
2021/09/22 04:39:58;;;;;;;12.73;8.88;;;;;;;;;;6214309;28;20175;-72
2021/09/22 04:43:00;;;;;;;13.20;8.45;;;;;;;;;;6221086;28;20049;-72
2021/09/22 04:46:02;;;;;;;10.55;7.75;;;;;;;;;;6219465;28;20087;-72
2021/09/22 04:49:05;;;;;;;12.77;9.05;;;;;;;;;;6222055;28;20140;-72
2021/09/22 04:52:06;;;;;;;14.63;9.27;;;;;;;;;;6226048;28;20739;-72
2021/09/22 04:55:10;;;;;;;12.07;8.70;;;;;;;;;;6232160;28;20050;-72
2021/09/22 04:58:11;;;;;;;12.75;9.10;;;;;;;;;;6228390;28;20206;-73
2021/09/22 05:01:13;;;;;;;15.82;9.15;;;;;;;;;;6221517;28;20119;-72
2021/09/22 05:04:15;;;;;;;14.55;9.00;;;;;;;;;;6222913;28;20119;-70
2021/09/22 05:07:16;;;;;;;11.60;8.68;;;;;;;;;;6201471;28;20059;-72
2021/09/22 05:10:19;;;;;;;15.43;9.10;;;;;;;;;;6205870;28;20092;-72
2021/09/22 05:13:21;;;;;;;10.90;8.57;;;;;;;;;;6225264;28;20110;-72
2021/09/22 05:16:23;;;;;;;13.93;8.48;;;;;;;;;;6227181;28;20177;-72
2021/09/22 05:19:24;;;;;;;13.48;8.85;;;;;;;;;;6233640;28;20053;-72
2021/09/22 05:22:26;;;;;;;14.32;9.27;;;;;;;;;;6229121;28;20137;-73
2021/09/22 05:25:29;;;;;;;12.70;9.02;;;;;;;;;;6232244;28;20033;-74
2021/09/22 05:28:31;;;;;;;13.83;8.60;;;;;;;;;;6239335;28;20133;-74
2021/09/22 05:31:33;;;;;;;13.07;8.63;;;;;;;;;;6231818;28;20507;-71
2021/09/22 05:34:34;;;;;;;14.07;9.07;;;;;;;;;;6243389;28;20775;-71
2021/09/22 05:37:37;;;;;;;13.15;8.52;;;;;;;;;;6229613;28;20572;-72
2021/09/22 05:40:40;;;;;;;12.90;8.77;;;;;;;;;;6235561;28;20477;-71
2021/09/22 05:43:41;;;;;;;14.85;8.07;;;;;;;;;;6238513;28;20056;-70
2021/09/22 05:46:43;;;;;;;13.68;7.88;;;;;;;;;;6226015;28;20104;-71
2021/09/22 05:49:45;;;;;;;12.27;7.82;;;;;;;;;;6236613;28;20107;-70
2021/09/22 05:52:46;;;;;;;11.20;7.78;;;;;;;;;;6227794;28;20490;-70
2021/09/22 05:55:49;;;;;;;10.75;8.30;;;;;;;;;;6236052;28;20161;-70
2021/09/22 05:58:51;;;;;;;12.83;8.20;;;;;;;;;;6239227;28;20045;-71
2021/09/22 06:01:53;;;;;;;12.73;8.88;;;;;;;;;;6226185;28;20065;-71
2021/09/22 06:04:54;;;;;;;13.85;8.55;;;;;;;;;;6236640;28;20133;-71
2021/09/22 06:07:56;;;;;;;11.60;7.97;;;;;;;;;;6235511;28;20171;-71
2021/09/22 06:10:59;;;;;;;10.30;7.93;;;;;;;;;;6235800;28;20045;-71
2021/09/22 06:14:01;;;;;;;11.00;8.10;;;;;;;;;;6240006;28;20081;-71
2021/09/22 06:17:03;;;;;;;10.50;7.63;;;;;;;;;;6229089;28;20471;-71
2021/09/22 06:20:06;;;;;;;10.27;7.25;;;;;;;;;;6235714;28;21616;-71
2021/09/22 06:23:07;;;;;;;11.73;8.03;;;;;;;;;;6239960;28;20180;-71
2021/09/22 06:26:10;;;;;;;11.80;7.70;;;;;;;;;;6229847;28;20050;-71
2021/09/22 06:29:12;;;;;;;15.90;8.25;;;;;;;;;;6217861;28;20046;-71
2021/09/22 06:32:14;;;;;;;10.40;8.23;;;;;;;;;;6229755;28;20276;-71
2021/09/22 06:35:15;;;;;;;12.13;8.27;;;;;;;;;;6235363;28;20172;-71
2021/09/22 06:38:17;;;;;;;13.50;8.68;;;;;;;;;;6224253;28;20128;-71
2021/09/22 06:41:20;;;;;;;14.13;8.85;;;;;;;;;;6204147;28;20050;-71
2021/09/22 06:44:21;;;;;;;15.20;9.00;;;;;;;;;;6215179;28;20054;-71
2021/09/22 06:47:23;;;;;;;11.95;9.18;;;;;;;;;;6201888;28;20107;-71
2021/09/22 06:50:28;;;;;;;14.05;8.63;;;;;;;;;;6204494;28;20404;-74
2021/09/22 06:53:29;;;;;;;13.98;8.93;;;;;;;;;;6209631;28;20053;-71
2021/09/22 06:56:33;;;;;;;13.93;9.50;;;;;;;;;;6218166;28;20183;-71
2021/09/22 06:59:35;;;;;;;10.27;8.70;;;;;;;;;;6215331;28;20779;-71
2021/09/22 07:02:36;;;;;;;12.25;8.82;;;;;;;;;;6223817;28;20106;-70
2021/09/22 07:05:38;;;;;;;16.08;9.60;;;;;;;;;;6224174;28;20481;-71
2021/09/22 07:08:40;;;;;;;15.95;10.57;;;;;;;;;;6228770;28;20045;-71
2021/09/22 07:11:43;;;;;;;14.77;9.90;;;;;;;;;;6226128;28;20050;-71
2021/09/22 07:14:45;;;;;;;12.90;9.50;;;;;;;;;;6212773;28;20042;-71
2021/09/22 07:17:46;;;;;;;13.48;9.80;;;;;;;;;;6220729;28;20586;-70
2021/09/22 07:20:48;;;;;;;15.48;10.52;;;;;;;;;;6223040;28;20042;-71
2021/09/22 07:23:50;;;;;;;12.05;10.23;;;;;;;;;;6226482;28;20041;-71
2021/09/22 07:26:53;;;;;;;13.30;9.80;;;;;;;;;;6207171;28;20200;-71
2021/09/22 07:29:55;;;;;;;12.40;9.75;;;;;;;;;;6212871;28;20132;-71
2021/09/22 07:32:59;;;;;;;15.55;10.40;;;;;;;;;;6202172;28;20060;-71
2021/09/22 07:36:01;;;;;;;14.45;10.43;;;;;;;;;;6205878;28;20190;-71
2021/09/22 07:39:04;;;;;;;13.40;10.68;;;;;;;;;;6237172;28;20148;-71
2021/09/22 07:42:11;;;;;;;17.07;10.33;;;;;;;;;;6215177;28;20053;-71
2021/09/22 07:45:13;;;;;;;12.55;9.80;;;;;;;;;;6231659;28;20076;-72
2021/09/22 07:48:15;;;;;;;14.55;10.18;;;;;;;;;;6225090;28;20042;-71
2021/09/22 07:51:16;;;;;;;18.05;11.90;;;;;;;;;;6225589;28;20057;-71
2021/09/22 07:54:18;;;;;;;16.77;10.20;;;;;;;;;;6237633;28;20125;-71
2021/09/22 07:57:21;;;;;;;15.93;11.07;;;;;;;;;;6228751;28;20104;-72
2021/09/22 08:00:24;;;;;;;12.23;10.10;;;;;;;;;;6240176;28;20505;-72
2021/09/22 08:03:25;;;;;;;13.17;10.53;;;;;;;;;;6209914;28;20409;-72
2021/09/22 08:06:27;;;;;;;18.60;10.88;;;;;;;;;;6225612;28;20511;-72
2021/09/22 08:09:29;;;;;;;15.70;10.32;;;;;;;;;;6235068;28;20046;-71
2021/09/22 08:12:32;;;;;;;16.25;10.38;;;;;;;;;;6226625;28;20140;-72
2021/09/22 08:15:34;;;;;;;12.18;10.52;;;;;;;;;;6226910;28;20103;-72
2021/09/22 08:18:35;;;;;;;14.40;10.50;;;;;;;;;;6226711;28;20728;-72
2021/09/22 08:21:37;;;;;;;16.73;11.02;;;;;;;;;;6219568;28;20053;-72
2021/09/22 08:24:38;;;;;;;16.48;10.73;;;;;;;;;;6228167;28;20091;-72
2021/09/22 08:27:41;;;;;;;18.77;11.35;;;;;;;;;;6219413;28;20283;-73
2021/09/22 08:30:44;;;;;;;45.60;13.55;;;;;;;;;;6225882;28;20089;-73
2021/09/22 08:33:45;;;;;;;22.57;12.60;;;;;;;;;;6224943;28;20045;-72
2021/09/22 08:36:48;;;;;;;68.00;15.23;;;;;;;;;;6226458;28;22062;-73
2021/09/22 08:39:49;;;;;;;15.20;12.05;;;;;;;;;;6233324;28;20062;-72
2021/09/22 08:42:53;;;;;;;16.30;11.77;;;;;;;;;;6228054;28;20041;-72
2021/09/22 08:45:54;;;;;;;14.98;12.07;;;;;;;;;;6224586;28;20128;-72
2021/09/22 08:48:56;;;;;;;17.90;11.05;;;;;;;;;;6235474;28;20045;-72
2021/09/22 08:51:57;;;;;;;11.73;10.43;;;;;;;;;;6222341;28;20596;-72
2021/09/22 08:54:59;;;;;;;12.73;10.50;;;;;;;;;;6232395;28;20071;-72
2021/09/22 08:58:02;;;;;;;16.00;10.45;;;;;;;;;;6227595;28;20156;-73
2021/09/22 09:01:12;;;;;;;13.20;11.55;;;;;;;;;;6209583;28;20545;-73
2021/09/22 09:04:16;;;;;;;12.85;11.18;;;;;;;;;;6231316;28;20050;-72
2021/09/22 09:07:17;;;;;;;13.18;10.85;;;;;;;;;;6216013;28;20532;-73
2021/09/22 09:10:20;;;;;;;17.60;10.73;;;;;;;;;;6204231;28;20129;-73
2021/09/22 09:13:23;;;;;;;;;;;;;;;;;;6206464;28;20176;-73
2021/09/22 09:16:34;;;;;;;13.37;10.87;;;;;;;;;;6227073;28;19975;-72
2021/09/22 09:19:37;;;;;;;13.85;11.20;;;;;;;;;;6230592;28;20062;-73
2021/09/22 09:22:38;;;;;;;14.95;10.10;;;;;;;;;;6223370;28;20064;-73
2021/09/22 09:25:46;;;;;;;20.13;10.98;;;;;;;;;;6226646;28;20049;-75
2021/09/22 09:28:51;;;;;;;17.17;11.18;;;;;;;;;;6232658;28;20159;-67
2021/09/22 09:32:12;;;;;;;12.77;10.43;;;;;;;;;;6221659;28;20130;-75
2021/09/22 09:35:15;;;;;;;15.05;11.27;;;;;;;;;;6226805;28;20114;-76
2021/09/22 09:38:17;;;;;;;12.18;10.95;;;;;;;;;;6228837;28;20102;-75
2021/09/22 09:41:30;;;;;;;11.98;9.75;;;;;;;;;;6226914;28;20120;-75
2021/09/22 09:44:33;;;;;;;;;;;;;;;;;;6214419;28;20136;-75
2021/09/22 09:47:35;;;;;;;13.77;10.45;;;;;;;;;;6202680;28;20023;-75
2021/09/22 09:50:40;;;;;;;13.40;9.93;;;;;;;;;;6202322;28;20042;-76
2021/09/22 09:53:41;;;;;;;13.45;10.00;;;;;;;;;;6225138;28;20073;-75
2021/09/22 09:56:43;;;;;;;14.65;10.80;;;;;;;;;;6204315;28;20128;-76
2021/09/22 09:59:47;;;;;;;13.38;10.85;;;;;;;;;;6228300;28;20053;-75
2021/09/22 10:02:50;;;;;;;11.55;10.10;;;;;;;;;;6223433;28;20053;-76
2021/09/22 10:05:53;;;;;;;13.57;10.40;;;;;;;;;;6224830;28;20045;-75
2021/09/22 10:08:55;;;;;;;10.65;8.60;;;;;;;;;;6233155;28;20045;-75
2021/09/22 10:11:56;;;;;;;9.75;8.05;;;;;;;;;;6221091;28;20124;-76
2021/09/22 10:15:00;;;;;;;18.10;10.80;;;;;;;;;;6208748;28;20550;-75
2021/09/22 10:18:01;;;;;;;9.50;8.32;;;;;;;;;;6216378;28;20464;-75
2021/09/22 10:21:03;;;;;;;9.73;8.43;;;;;;;;;;6227397;28;20742;-76
2021/09/22 10:24:09;;;;;;;10.13;8.73;;;;;;;;;;6236022;28;20506;-75
2021/09/22 10:27:13;;;;;;;12.05;8.95;;;;;;;;;;6229557;28;20549;-75
2021/09/22 10:30:17;;;;;;;9.98;7.32;;;;;;;;;;6234834;28;20501;-76
2021/09/22 10:33:26;;;;;;;12.15;9.40;;;;;;;;;;6221282;28;20052;-76
2021/09/22 10:36:34;;;;;;;14.20;9.27;;;;;;;;;;6220092;28;20040;-75
2021/09/22 10:39:44;;;;;;;11.75;10.55;;;;;;;;;;6231011;28;20149;-75
2021/09/22 10:42:46;;;;;;;11.25;9.35;;;;;;;;;;6226962;28;20062;-76
2021/09/22 10:46:10;;;;;;;10.63;8.38;;;;;;;;;;6227582;28;20579;-75
2021/09/22 10:49:15;;;;;;;11.65;9.30;;;;;;;;;;6233557;28;20056;-75
2021/09/22 10:52:30;;;;;;;10.18;9.00;;;;;;;;;;6219054;28;20227;-76
2021/09/22 10:55:32;;;;;;;9.93;7.88;;;;;;;;;;6225156;28;20068;-76
2021/09/22 10:58:42;;;;;;;9.43;7.72;;;;;;;;;;6230611;28;20053;-77
2021/09/22 11:01:51;;;;;;;9.32;8.43;;;;;;;;;;6201292;28;20050;-76
2021/09/22 11:05:01;;;;;;;9.40;7.90;;;;;;;;;;6217315;28;20408;-73
2021/09/22 11:08:04;;;;;;;15.10;9.45;;;;;;;;;;6223382;28;20091;-74
2021/09/22 11:11:06;;;;;;;11.13;8.85;;;;;;;;;;6228393;28;20574;-74
2021/09/22 11:14:09;;;;;;;;;;;;;;;;;;6229102;28;20172;-74
2021/09/22 11:17:15;;;;;;;10.52;9.57;;;;;;;;;;6220676;28;20432;-74
2021/09/22 11:20:17;;;;;;;10.95;9.85;;;;;;;;;;6224387;28;20107;-75
2021/09/22 11:23:18;;;;;;;10.77;9.35;;;;;;;;;;6225529;28;20053;-74
2021/09/22 11:26:20;;;;;;;11.75;10.55;;;;;;;;;;6216407;28;20243;-73
2021/09/22 11:29:29;;;;;;;12.77;11.48;;;;;;;;;;6202686;28;20526;-71
2021/09/22 11:32:35;;;;;;;13.00;11.20;;;;;;;;;;6206478;28;20049;-72
2021/09/22 11:35:37;;;;;;;14.65;11.20;;;;;;;;;;6218248;28;20699;-71
2021/09/22 11:38:38;;;;;;;11.88;10.15;;;;;;;;;;6232200;28;20140;-71
2021/09/22 11:41:40;;;;;;;10.70;9.70;;;;;;;;;;6217232;28;20524;-74
2021/09/22 11:44:42;;;;;;;9.50;8.60;;;;;;;;;;6211672;28;20522;-75
2021/09/22 11:47:48;;;;;;;10.17;9.00;;;;;;;;;;6198475;28;20144;-74
2021/09/22 11:50:49;;;;;;;9.35;8.38;;;;;;;;;;6220279;28;20558;-72
2021/09/22 11:53:51;;;;;;;14.38;9.23;;;;;;;;;;6204635;28;20124;-72
2021/09/22 11:57:01;;;;;;;8.43;7.00;;;;;;;;;;6208582;28;20178;-75
2021/09/22 12:00:04;;;;;;;7.18;6.47;;;;;;;;;;6220195;28;20129;-72
2021/09/22 12:03:07;;;;;;;;;;;;;;;;;;6192111;28;20070;-73
2021/09/22 12:06:11;;;;;;;8.77;7.28;;;;;;;;;;6196132;28;19925;-72
2021/09/22 12:09:12;;;;;;;9.98;7.60;;;;;;;;;;6205237;28;20501;-73
2021/09/22 12:12:16;;;;;;;7.80;6.97;;;;;;;;;;6204720;28;20081;-73
2021/09/22 12:15:18;;;;;;;7.60;6.90;;;;;;;;;;6223641;28;20045;-72
2021/09/22 12:18:21;;;;;;;9.60;7.80;;;;;;;;;;6230455;28;20049;-72
2021/09/22 12:21:23;;;;;;;9.48;8.57;;;;;;;;;;6230779;28;20111;-75
2021/09/22 12:24:25;;;;;;;;;;;;;;;;;;6209748;28;20139;-71
2021/09/22 12:27:28;;;;;;;8.40;7.63;;;;;;;;;;6202630;28;19921;-71
2021/09/22 12:30:32;;;;;;;10.27;7.50;;;;;;;;;;6208314;28;20131;-73
2021/09/22 12:33:35;;;;;;;8.70;7.05;;;;;;;;;;6205221;28;20131;-71
2021/09/22 12:36:37;;;;;;;9.80;8.10;;;;;;;;;;6218823;28;20140;-71
2021/09/22 12:39:38;;;;;;;10.77;8.90;;;;;;;;;;6215277;28;20460;-72
2021/09/22 12:42:41;;;;;;;8.60;7.63;;;;;;;;;;6208255;28;20208;-74
2021/09/22 12:45:43;;;;;;;8.70;7.80;;;;;;;;;;6223905;28;20144;-76
2021/09/22 12:48:48;;;;;;;8.80;7.80;;;;;;;;;;6232726;28;20149;-74
2021/09/22 12:51:51;;;;;;;14.00;10.40;;;;;;;;;;6207455;28;20072;-72
2021/09/22 12:54:53;;;;;;;9.93;8.48;;;;;;;;;;6211617;28;20671;-76
2021/09/22 12:57:57;;;;;;;9.23;7.53;;;;;;;;;;6196112;28;20181;-74
2021/09/22 13:01:00;;;;;;;9.60;8.25;;;;;;;;;;6225401;28;20126;-76
2021/09/22 13:04:03;;;;;;;9.05;6.93;;;;;;;;;;6233965;28;20042;-74
2021/09/22 13:07:07;;;;;;;10.05;7.22;;;;;;;;;;6227521;28;20485;-75
2021/09/22 13:10:10;;;;;;;7.65;6.90;;;;;;;;;;6226245;28;22043;-75
2021/09/22 13:13:15;;;;;;;8.43;7.63;;;;;;;;;;6209381;28;20067;-76
2021/09/22 13:16:25;;;;;;;7.70;6.68;;;;;;;;;;6216843;28;20086;-76
2021/09/22 13:19:29;;;;;;;9.55;7.80;;;;;;;;;;6208246;28;20498;-76
2021/09/22 13:22:30;;;;;;;9.77;6.40;;;;;;;;;;6212658;28;20136;-77
2021/09/22 13:25:32;;;;;;;9.90;7.87;;;;;;;;;;6230468;28;20114;-77
2021/09/22 13:28:34;;;;;;;8.57;6.22;;;;;;;;;;6232753;28;20179;-77
2021/09/22 13:31:37;;;;;;;7.43;5.97;;;;;;;;;;6221353;28;20041;-75
2021/09/22 13:34:40;;;;;;;7.90;5.90;;;;;;;;;;6234934;28;20042;-76
2021/09/22 13:37:41;;;;;;;7.40;6.70;;;;;;;;;;6225724;28;20133;-77
2021/09/22 13:40:43;;;;;;;7.65;6.85;;;;;;;;;;6232139;28;20045;-76
2021/09/22 13:43:45;;;;;;;11.75;7.93;;;;;;;;;;6222170;28;20058;-76
2021/09/22 13:46:48;;;;;;;;;;;;;;;;;;6206476;28;20099;-75
2021/09/22 13:49:51;;;;;;;10.38;7.72;;;;;;;;;;6216215;28;20233;-76
2021/09/22 13:52:53;;;;;;;8.68;6.75;;;;;;;;;;6228194;28;20164;-77
2021/09/22 13:55:57;;;;;;;9.17;7.97;;;;;;;;;;6231254;28;20127;-76
2021/09/22 13:58:59;;;;;;;10.27;9.27;;;;;;;;;;6242083;28;20053;-77
2021/09/22 14:02:01;;;;;;;13.43;10.03;;;;;;;;;;6220280;28;20052;-77
2021/09/22 14:05:04;;;;;;;9.27;8.32;;;;;;;;;;6231674;28;20049;-77
2021/09/22 14:08:06;;;;;;;10.63;8.38;;;;;;;;;;6221022;28;20569;-77
2021/09/22 14:11:08;;;;;;;12.32;7.60;;;;;;;;;;6199493;28;20046;-77
2021/09/22 14:14:10;;;;;;;11.80;8.40;;;;;;;;;;6211746;28;20179;-76
2021/09/22 14:17:12;;;;;;;9.63;8.68;;;;;;;;;;6219587;28;20041;-76
2021/09/22 14:20:15;;;;;;;8.85;8.00;;;;;;;;;;6229104;28;20049;-69
2021/09/22 14:23:18;;;;;;;7.75;6.60;;;;;;;;;;6237965;28;20102;-71
2021/09/22 14:26:20;;;;;;;9.52;7.20;;;;;;;;;;6232430;28;20128;-75
2021/09/22 14:29:22;;;;;;;8.65;6.90;;;;;;;;;;6238158;28;20129;-74
2021/09/22 14:32:23;;;;;;;7.90;7.10;;;;;;;;;;6220192;28;20176;-75
2021/09/22 14:35:27;;;;;;;10.30;7.07;;;;;;;;;;6221669;28;20135;-75
2021/09/22 14:38:29;;;;;;;12.00;8.35;;;;;;;;;;6228573;28;20462;-75
2021/09/22 14:41:30;;;;;;;13.40;9.40;;;;;;;;;;6224851;28;20037;-75
2021/09/22 14:44:32;;;;;;;10.88;8.85;;;;;;;;;;6232602;28;20545;-75
2021/09/22 14:47:34;;;;;;;9.85;8.85;;;;;;;;;;6215205;28;20606;-75
2021/09/22 14:50:37;;;;;;;10.35;8.15;;;;;;;;;;6206890;28;20452;-75
2021/09/22 14:53:38;;;;;;;9.88;7.63;;;;;;;;;;6232423;28;20103;-75
2021/09/22 14:56:40;;;;;;;7.43;5.82;;;;;;;;;;6235117;28;20136;-75
2021/09/22 14:59:42;;;;;;;8.65;7.75;;;;;;;;;;6229797;28;20053;-75
2021/09/22 15:02:48;;;;;;;8.97;6.80;;;;;;;;;;6223149;28;20492;-75
2021/09/22 15:05:52;;;;;;;9.75;7.50;;;;;;;;;;6221956;28;20490;-73
2021/09/22 15:08:53;;;;;;;7.20;6.30;;;;;;;;;;6234268;28;20051;-75
2021/09/22 15:11:55;;;;;;;8.52;5.35;;;;;;;;;;6231610;28;20042;-75
2021/09/22 15:14:56;;;;;;;7.53;6.77;;;;;;;;;;6240200;28;20646;-75
2021/09/22 15:17:58;;;;;;;7.50;6.77;;;;;;;;;;6223593;28;20479;-74
2021/09/22 15:21:01;;;;;;;7.80;7.00;;;;;;;;;;6230783;28;20129;-75
2021/09/22 15:24:03;;;;;;;7.53;5.53;;;;;;;;;;6236612;28;20069;-73
2021/09/22 15:27:05;;;;;;;12.90;7.47;;;;;;;;;;6231869;28;20077;-75
2021/09/22 15:30:09;;;;;;;10.80;7.72;;;;;;;;;;6237238;28;20130;-75
2021/09/22 15:33:11;;;;;;;7.80;7.03;;;;;;;;;;6226403;28;20073;-74
2021/09/22 15:36:14;;;;;;;8.50;7.55;;;;;;;;;;6227369;28;20051;-67
2021/09/22 15:39:15;;;;;;;10.18;7.18;;;;;;;;;;6233765;28;20088;-68
2021/09/22 15:42:18;;;;;;;9.03;8.13;;;;;;;;;;6226329;28;20049;-67
2021/09/22 15:45:20;;;;;;;10.30;8.43;;;;;;;;;;6233574;28;20136;-67
2021/09/22 15:48:22;;;;;;;9.27;6.93;;;;;;;;;;6225757;28;20053;-67
2021/09/22 15:51:34;;;;;;;10.00;7.53;;;;;;;;;;6232156;28;20160;-68
2021/09/22 15:54:36;;;;;;;8.95;7.75;;;;;;;;;;6237665;28;20094;-68
2021/09/22 15:57:37;;;;;;;10.45;7.38;;;;;;;;;;6231412;28;20101;-68
2021/09/22 16:00:39;;;;;;;8.00;7.03;;;;;;;;;;6231278;28;20187;-67
2021/09/22 16:03:41;;;;;;;11.17;8.30;;;;;;;;;;6230185;28;20060;-68
2021/09/22 16:06:45;;;;;;;9.23;7.68;;;;;;;;;;6228219;28;20400;-68
2021/09/22 16:09:47;;;;;;;8.25;6.55;;;;;;;;;;6234079;28;20115;-66
2021/09/22 16:12:48;;;;;;;8.88;7.07;;;;;;;;;;6231395;28;20060;-67
2021/09/22 16:15:55;;;;;;;9.00;8.15;;;;;;;;;;6228199;28;20436;-67
2021/09/22 16:18:57;;;;;;;10.25;8.93;;;;;;;;;;6231344;28;20501;-68
2021/09/22 16:21:59;;;;;;;11.97;9.27;;;;;;;;;;6203689;28;20064;-69
2021/09/22 16:25:01;;;;;;;8.73;7.43;;;;;;;;;;6209777;28;20089;-74
2021/09/22 16:28:03;;;;;;;10.68;9.57;;;;;;;;;;6226889;28;20073;-72
2021/09/22 16:31:04;;;;;;;10.18;8.25;;;;;;;;;;6229149;28;20045;-72
2021/09/22 16:34:06;;;;;;;15.15;10.15;;;;;;;;;;6225312;28;20125;-72
2021/09/22 16:37:09;;;;;;;10.82;9.65;;;;;;;;;;6204767;28;20077;-71
2021/09/22 16:40:12;;;;;;;11.45;9.85;;;;;;;;;;6226078;28;20171;-71
2021/09/22 16:43:14;;;;;;;12.40;11.00;;;;;;;;;;6232248;28;20124;-71
2021/09/22 16:46:15;;;;;;;11.07;9.33;;;;;;;;;;6219928;28;20125;-70
2021/09/22 16:49:17;;;;;;;11.77;9.80;;;;;;;;;;6234629;28;20160;-71
2021/09/22 16:52:35;;;;;;;10.57;8.73;;;;;;;;;;6221855;28;20129;-71
2021/09/22 16:55:37;;;;;;;11.05;9.25;;;;;;;;;;6216039;28;20096;-71
2021/09/22 16:58:38;;;;;;;13.07;9.30;;;;;;;;;;6229210;28;20106;-72
2021/09/22 17:01:40;;;;;;;11.73;9.93;;;;;;;;;;6219990;28;20049;-70
2021/09/22 17:04:41;;;;;;;13.52;8.50;;;;;;;;;;6232204;28;20056;-70
2021/09/22 17:07:45;;;;;;;9.70;8.70;;;;;;;;;;6230532;28;20076;-70
2021/09/22 17:10:47;;;;;;;10.90;8.88;;;;;;;;;;6232564;28;20073;-70
2021/09/22 17:13:49;;;;;;;11.27;8.73;;;;;;;;;;6237305;28;20052;-70
2021/09/22 17:16:51;;;;;;;11.73;7.85;;;;;;;;;;6226054;28;20063;-70
2021/09/22 17:19:52;;;;;;;12.38;8.10;;;;;;;;;;6235626;28;20183;-70
2021/09/22 17:22:57;;;;;;;8.82;7.93;;;;;;;;;;6229970;28;20088;-70
2021/09/22 17:25:58;;;;;;;8.93;8.02;;;;;;;;;;6228514;28;20046;-70
2021/09/22 17:29:00;;;;;;;10.93;8.15;;;;;;;;;;6240902;28;20134;-70
2021/09/22 17:32:02;;;;;;;8.05;6.88;;;;;;;;;;6234618;28;20126;-70
2021/09/22 17:35:04;;;;;;;10.65;7.70;;;;;;;;;;6228391;28;20069;-70
2021/09/22 17:38:08;;;;;;;11.47;8.57;;;;;;;;;;6227718;28;20052;-70
2021/09/22 17:41:10;;;;;;;9.75;8.32;;;;;;;;;;6226452;28;20349;-70
2021/09/22 17:44:11;;;;;;;11.13;8.48;;;;;;;;;;6240273;28;20195;-70
2021/09/22 17:47:14;;;;;;;11.45;9.00;;;;;;;;;;6230811;28;20572;-70
2021/09/22 17:50:16;;;;;;;11.55;8.82;;;;;;;;;;6216538;28;20049;-70
2021/09/22 17:53:19;;;;;;;12.68;9.27;;;;;;;;;;6218093;28;20207;-70
2021/09/22 17:56:21;;;;;;;11.00;9.00;;;;;;;;;;6202123;28;20466;-69
2021/09/22 17:59:22;;;;;;;11.82;9.75;;;;;;;;;;6211322;28;20136;-69
2021/09/22 18:02:24;;;;;;;14.23;8.65;;;;;;;;;;6198680;28;20099;-72